createdAt,value
2022-10-25T00:02:23.994Z,98189.50
2022-10-25T00:04:50.804Z,98190.16
2022-10-25T00:07:17.416Z,98198.56
2022-10-25T00:09:44.097Z,98195.06
2022-10-25T00:12:10.674Z,98198.00
2022-10-25T00:14:37.305Z,98199.94
2022-10-25T00:17:03.972Z,98205.00
2022-10-25T00:19:30.587Z,98203.63
2022-10-25T00:21:57.185Z,98202.06
2022-10-25T00:24:23.861Z,98195.06
2022-10-25T00:26:50.719Z,98199.19
2022-10-25T00:29:17.668Z,98204.19
2022-10-25T00:31:44.473Z,98190.84
2022-10-25T00:34:11.202Z,98192.94
2022-10-25T00:36:37.840Z,98200.19
2022-10-25T00:39:04.582Z,98195.31
2022-10-25T00:41:33.663Z,98196.09
2022-10-25T00:44:37.641Z,98204.31
2022-10-25T00:47:26.367Z,98202.84
2022-10-25T00:49:59.179Z,98203.91
2022-10-25T00:52:29.458Z,98209.84
2022-10-25T00:54:56.031Z,98203.09
2022-10-25T00:57:47.079Z,98205.69
2022-10-25T01:00:14.164Z,98206.69
2022-10-25T01:02:41.163Z,98215.78
2022-10-25T01:05:08.639Z,98210.97
2022-10-25T01:07:35.487Z,98219.09
2022-10-25T01:10:02.279Z,98222.00
2022-10-25T01:12:29.267Z,98218.56
2022-10-25T01:14:55.998Z,98227.97
2022-10-25T01:17:31.750Z,98220.00
2022-10-25T01:20:10.152Z,98220.13
2022-10-25T01:22:51.960Z,98219.22
2022-10-25T01:25:45.570Z,98215.38
2022-10-25T01:28:15.117Z,98220.91
2022-10-25T01:31:02.397Z,98229.19
2022-10-25T01:33:38.903Z,98217.75
2022-10-25T01:36:46.810Z,98223.16
2022-10-25T01:39:25.225Z,98212.47
2022-10-25T01:42:16.585Z,98222.78
2022-10-25T01:44:49.373Z,98219.88
2022-10-25T01:47:20.559Z,98216.38
2022-10-25T01:50:01.761Z,98213.53
2022-10-25T01:52:28.624Z,98226.34
2022-10-25T01:54:55.138Z,98222.78
2022-10-25T01:57:52.991Z,98225.59
2022-10-25T02:00:24.548Z,98219.66
2022-10-25T02:03:09.150Z,98228.47
2022-10-25T02:06:18.151Z,98224.03
2022-10-25T02:08:56.020Z,98216.63
2022-10-25T02:11:23.988Z,98224.88
2022-10-25T02:14:21.556Z,98220.84
2022-10-25T02:16:55.497Z,98220.38
2022-10-25T02:19:30.182Z,98223.00
2022-10-25T02:21:58.426Z,98232.88
2022-10-25T02:24:28.494Z,98229.31
2022-10-25T02:26:56.968Z,98226.88
2022-10-25T02:29:26.067Z,98237.13
2022-10-25T02:31:52.775Z,98230.38
2022-10-25T02:34:19.680Z,98238.69
2022-10-25T02:36:51.599Z,98235.59
2022-10-25T02:39:18.961Z,98235.22
2022-10-25T02:41:45.537Z,98230.47
2022-10-25T02:44:12.216Z,98229.94
2022-10-25T02:46:38.906Z,98231.00
2022-10-25T02:49:06.316Z,98227.56
2022-10-25T02:51:32.963Z,98223.06
2022-10-25T02:53:59.514Z,98224.09
2022-10-25T02:56:26.111Z,98229.50
2022-10-25T02:58:56.229Z,98234.78
2022-10-25T03:01:23.418Z,98232.28
2022-10-25T03:03:50.875Z,98236.88
2022-10-25T03:06:17.907Z,98247.88
2022-10-25T03:08:45.017Z,98244.63
2022-10-25T03:11:13.005Z,98243.06
2022-10-25T03:13:39.665Z,98253.78
2022-10-25T03:16:06.847Z,98250.44
2022-10-25T03:18:33.745Z,98255.72
2022-10-25T03:21:01.932Z,98267.41
2022-10-25T03:23:29.406Z,98265.81
2022-10-25T03:25:57.840Z,98266.50
2022-10-25T03:28:24.822Z,98265.41
2022-10-25T03:30:51.481Z,98264.19
2022-10-25T03:33:18.143Z,98264.31
2022-10-25T03:35:45.012Z,98275.19
2022-10-25T03:38:11.673Z,98276.13
2022-10-25T03:40:38.237Z,98282.47
2022-10-25T03:43:04.830Z,98286.81
2022-10-25T03:45:31.399Z,98289.91
2022-10-25T03:47:58.050Z,98287.91
2022-10-25T03:50:24.755Z,98289.56
2022-10-25T03:52:51.463Z,98297.50
2022-10-25T03:55:18.126Z,98295.84
2022-10-25T03:57:45.093Z,98299.28
2022-10-25T04:00:12.580Z,98302.44
2022-10-25T04:02:39.356Z,98300.34
2022-10-25T04:05:06.379Z,98293.94
2022-10-25T04:07:33.048Z,98305.16
2022-10-25T04:09:59.708Z,98298.88
2022-10-25T04:12:26.402Z,98308.66
2022-10-25T04:14:53.069Z,98306.09
2022-10-25T04:17:19.714Z,98308.03
2022-10-25T04:19:46.337Z,98305.84
2022-10-25T04:22:13.338Z,98305.00
2022-10-25T04:24:39.948Z,98303.72
2022-10-25T04:27:06.712Z,98308.09
2022-10-25T04:29:33.325Z,98302.22
2022-10-25T04:32:00.147Z,98303.34
2022-10-25T04:34:26.747Z,98303.91
2022-10-25T04:36:53.328Z,98304.09
2022-10-25T04:39:19.997Z,98306.88
2022-10-25T04:41:46.534Z,98298.09
2022-10-25T04:44:13.245Z,98305.72
2022-10-25T04:46:39.809Z,98298.28
2022-10-25T04:49:06.547Z,98306.53
2022-10-25T04:51:34.460Z,98309.31
2022-10-25T04:54:01.011Z,98303.19
2022-10-25T04:56:28.942Z,98300.19
2022-10-25T04:58:58.855Z,98303.56
2022-10-25T05:01:25.993Z,98301.97
2022-10-25T05:03:52.690Z,98308.03
2022-10-25T05:06:24.256Z,98307.38
2022-10-25T05:08:51.502Z,98309.03
2022-10-25T05:11:20.909Z,98312.81
2022-10-25T05:13:47.822Z,98313.28
2022-10-25T05:16:23.817Z,98319.94
2022-10-25T05:18:54.479Z,98327.25
2022-10-25T05:21:23.231Z,98334.13
2022-10-25T05:23:49.901Z,98320.34
2022-10-25T05:26:19.754Z,98327.13
2022-10-25T05:28:47.938Z,98333.81
2022-10-25T05:31:17.182Z,98327.38
2022-10-25T05:33:45.258Z,98325.09
2022-10-25T05:36:13.201Z,98339.28
2022-10-25T05:38:40.512Z,98336.63
2022-10-25T05:41:08.276Z,98338.88
2022-10-25T05:43:35.271Z,98333.78
2022-10-25T05:46:08.228Z,98339.16
2022-10-25T05:48:36.207Z,98335.28
2022-10-25T05:51:33.033Z,98346.13
2022-10-25T05:54:03.395Z,98346.41
2022-10-25T05:56:31.470Z,98340.06
2022-10-25T05:58:58.190Z,98346.25
2022-10-25T06:01:27.072Z,98345.34
2022-10-25T06:03:55.260Z,98345.13
2022-10-25T06:06:22.989Z,98342.50
2022-10-25T06:08:50.153Z,98354.28
2022-10-25T06:11:19.455Z,98360.03
2022-10-25T06:13:46.464Z,98361.28
2022-10-25T06:16:15.235Z,98369.78
2022-10-25T06:18:42.239Z,98368.66
2022-10-25T06:21:29.128Z,98382.88
2022-10-25T06:23:58.799Z,98383.66
2022-10-25T06:26:28.603Z,98380.44
2022-10-25T06:28:59.362Z,98388.66
2022-10-25T06:31:26.655Z,98383.25
2022-10-25T06:33:53.326Z,98384.84
2022-10-25T06:36:22.541Z,98389.38
2022-10-25T06:38:50.247Z,98393.75
2022-10-25T06:41:22.696Z,98391.97
2022-10-25T06:43:50.377Z,98400.59
2022-10-25T06:46:25.337Z,98401.03
2022-10-25T06:48:53.946Z,98399.03
2022-10-25T06:51:21.927Z,98408.34
2022-10-25T06:53:54.072Z,98416.00
2022-10-25T06:56:20.767Z,98418.59
2022-10-25T06:58:47.451Z,98428.56
2022-10-25T07:01:16.061Z,98418.13
2022-10-25T07:03:43.784Z,98426.50
2022-10-25T07:06:16.391Z,98439.13
2022-10-25T07:08:45.269Z,98448.06
2022-10-25T07:11:19.347Z,98443.41
2022-10-25T07:13:46.851Z,98446.06
2022-10-25T07:16:16.059Z,98449.25
2022-10-25T07:18:43.211Z,98447.19
2022-10-25T07:21:23.148Z,98454.41
2022-10-25T07:23:50.900Z,98463.19
2022-10-25T07:26:35.770Z,98456.03
2022-10-25T07:29:04.061Z,98467.19
2022-10-25T07:31:41.009Z,98457.06
2022-10-25T07:34:07.870Z,98466.06
2022-10-25T07:36:34.519Z,98466.13
2022-10-25T07:39:01.087Z,98470.28
2022-10-25T07:41:27.861Z,98475.09
2022-10-25T07:43:55.576Z,98474.84
2022-10-25T07:46:22.554Z,98476.75
2022-10-25T07:48:49.103Z,98472.94
2022-10-25T07:51:17.629Z,98476.69
2022-10-25T07:53:44.320Z,98478.53
2022-10-25T07:56:17.426Z,98477.88
2022-10-25T07:58:47.353Z,98476.03
2022-10-25T08:01:19.848Z,98469.44
2022-10-25T08:03:46.561Z,98474.97
2022-10-25T08:06:13.327Z,98473.25
2022-10-25T08:08:40.015Z,98478.78
2022-10-25T08:11:08.290Z,98489.13
2022-10-25T08:13:36.972Z,98494.31
2022-10-25T08:16:04.335Z,98485.38
2022-10-25T08:18:31.093Z,98488.03
2022-10-25T08:21:02.290Z,98486.41
2022-10-25T08:23:31.669Z,98493.09
2022-10-25T08:25:58.967Z,98493.53
2022-10-25T08:28:25.697Z,98487.88
2022-10-25T08:30:55.565Z,98486.03
2022-10-25T08:33:22.801Z,98486.94
2022-10-25T08:35:49.699Z,98483.91
2022-10-25T08:38:16.183Z,98485.16
2022-10-25T08:40:45.520Z,98485.53
2022-10-25T08:43:27.064Z,98488.09
2022-10-25T08:45:58.545Z,98490.09
2022-10-25T08:48:32.745Z,98489.31
2022-10-25T08:51:19.743Z,98483.50
2022-10-25T08:53:50.917Z,98486.34
2022-10-25T08:56:19.329Z,98492.28
2022-10-25T08:58:52.783Z,98494.22
2022-10-25T09:01:26.720Z,98492.25
2022-10-25T09:03:53.705Z,98495.41
2022-10-25T09:06:43.548Z,98511.22
2022-10-25T09:09:19.042Z,98505.88
2022-10-25T09:12:08.639Z,98506.06
2022-10-25T09:14:44.837Z,98506.34
2022-10-25T09:17:34.236Z,98511.25
2022-10-25T09:20:06.219Z,98511.94
2022-10-25T09:22:44.832Z,98519.25
2022-10-25T09:25:29.224Z,98520.88
2022-10-25T09:28:01.244Z,98516.69
2022-10-25T09:30:37.880Z,98514.03
2022-10-25T09:33:12.830Z,98519.50
2022-10-25T09:35:54.955Z,98519.28
2022-10-25T09:38:41.642Z,98515.25
2022-10-25T09:41:17.297Z,98523.72
2022-10-25T09:44:04.152Z,98530.94
2022-10-25T09:46:54.239Z,98515.94
2022-10-25T09:49:34.138Z,98526.47
2022-10-25T09:52:37.110Z,98529.72
2022-10-25T09:55:18.918Z,98525.44
2022-10-25T09:57:46.653Z,98522.28
2022-10-25T10:00:14.866Z,98537.97
2022-10-25T10:02:41.706Z,98528.56
2022-10-25T10:05:16.554Z,98535.94
2022-10-25T10:07:46.065Z,98530.16
2022-10-25T10:10:21.310Z,98538.72
2022-10-25T10:12:50.745Z,98533.88
2022-10-25T10:15:28.538Z,98541.25
2022-10-25T10:18:24.884Z,98535.56
2022-10-25T10:21:05.557Z,98536.91
2022-10-25T10:23:48.871Z,98543.13
2022-10-25T10:26:30.741Z,98534.44
2022-10-25T10:29:07.829Z,98539.88
2022-10-25T10:31:41.535Z,98542.22
2022-10-25T10:34:31.272Z,98543.56
2022-10-25T10:37:20.871Z,98548.91
2022-10-25T10:40:07.692Z,98548.09
2022-10-25T10:42:39.705Z,98534.91
2022-10-25T10:45:09.009Z,98537.16
2022-10-25T10:47:56.164Z,98538.00
2022-10-25T10:50:22.841Z,98535.56
2022-10-25T10:53:22.692Z,98536.09
2022-10-25T10:55:53.762Z,98543.94
2022-10-25T10:58:23.903Z,98536.72
2022-10-25T11:00:58.145Z,98535.41
2022-10-25T11:03:53.633Z,98537.28
2022-10-25T11:06:35.368Z,98534.13
2022-10-25T11:09:16.185Z,98534.97
2022-10-25T11:11:44.143Z,98537.34
2022-10-25T11:14:15.916Z,98535.53
2022-10-25T11:16:52.680Z,98529.78
2022-10-25T11:19:30.698Z,98543.53
2022-10-25T11:22:12.110Z,98549.25
2022-10-25T11:24:50.819Z,98548.97
2022-10-25T11:27:34.972Z,98550.22
2022-10-25T11:30:04.709Z,98553.00
2022-10-25T11:32:50.330Z,98544.84
2022-10-25T11:35:46.025Z,98554.38
2022-10-25T11:38:48.966Z,98553.38
2022-10-25T11:41:21.616Z,98562.16
2022-10-25T11:44:17.947Z,98550.13
2022-10-25T11:46:53.833Z,98551.06
2022-10-25T11:49:35.471Z,98560.47
2022-10-25T11:52:08.156Z,98562.94
2022-10-25T11:54:42.838Z,98555.78
2022-10-25T11:57:21.351Z,98555.59
2022-10-25T12:00:21.007Z,98554.50
2022-10-25T12:03:00.850Z,98563.56
2022-10-25T12:05:51.703Z,98558.44
2022-10-25T12:08:47.118Z,98565.47
2022-10-25T12:11:38.126Z,98560.28
2022-10-25T12:14:09.413Z,98557.41
2022-10-25T12:16:37.416Z,98555.91
2022-10-25T12:19:16.538Z,98560.94
2022-10-25T12:22:01.635Z,98559.94
2022-10-25T12:24:39.643Z,98557.69
2022-10-25T12:27:09.311Z,98569.41
2022-10-25T12:29:48.091Z,98580.94
2022-10-25T12:32:21.785Z,98571.31
2022-10-25T12:34:52.033Z,98572.31
2022-10-25T12:37:47.504Z,98577.16
2022-10-25T12:40:19.826Z,98582.34
2022-10-25T12:42:51.576Z,98576.00
2022-10-25T12:45:43.322Z,98567.41
2022-10-25T12:48:39.241Z,98576.66
2022-10-25T12:51:21.303Z,98577.88
2022-10-25T12:54:23.612Z,98580.38
2022-10-25T12:56:56.094Z,98577.22
2022-10-25T13:03:25.650Z,98585.53
2022-10-25T13:06:12.433Z,98585.13
2022-10-25T13:08:40.694Z,98580.63
2022-10-25T13:11:09.881Z,98581.25
2022-10-25T13:13:54.575Z,98588.44
2022-10-25T13:16:27.270Z,98581.25
2022-10-25T13:19:30.572Z,98579.56
2022-10-25T13:22:31.503Z,98579.38
2022-10-25T13:25:01.585Z,98580.34
2022-10-25T13:27:31.365Z,98583.00
2022-10-25T13:29:57.850Z,98581.00
2022-10-25T13:32:24.652Z,98574.75
2022-10-25T13:34:51.247Z,98574.28
2022-10-25T13:37:32.927Z,98578.66
2022-10-25T13:40:07.342Z,98585.91
2022-10-25T13:42:42.202Z,98584.38
2022-10-25T13:45:19.561Z,98576.47
2022-10-25T13:47:49.382Z,98572.59
2022-10-25T13:50:23.142Z,98569.00
2022-10-25T13:53:16.956Z,98569.97
2022-10-25T13:55:56.365Z,98567.47
2022-10-25T13:58:31.689Z,98565.13
2022-10-25T14:01:19.485Z,98558.47
2022-10-25T14:04:02.194Z,98556.97
2022-10-25T14:06:36.885Z,98562.06
2022-10-25T14:09:09.461Z,98566.06
2022-10-25T14:11:47.214Z,98559.69
2022-10-25T14:14:33.731Z,98565.13
2022-10-25T14:17:07.394Z,98568.91
2022-10-25T14:19:39.506Z,98567.69
2022-10-25T14:22:15.586Z,98565.75
2022-10-25T14:24:44.060Z,98559.03
2022-10-25T14:27:30.940Z,98566.31
2022-10-25T14:30:30.112Z,98573.00
2022-10-25T14:32:59.124Z,98580.06
2022-10-25T14:35:33.977Z,98581.00
2022-10-25T14:38:14.186Z,98578.66
2022-10-25T14:40:40.853Z,98577.44
2022-10-25T14:43:25.502Z,98581.69
2022-10-25T14:45:59.893Z,98578.94
2022-10-25T14:48:26.879Z,98574.81
2022-10-25T14:50:55.561Z,98588.75
2022-10-25T14:53:22.594Z,98584.94
2022-10-25T14:55:58.575Z,98584.22
2022-10-25T14:58:25.819Z,98586.06
2022-10-25T15:00:58.176Z,98586.56
2022-10-25T15:03:27.795Z,98580.81
2022-10-25T15:05:55.030Z,98583.66
2022-10-25T15:08:25.187Z,98590.31
2022-10-25T15:10:56.241Z,98581.81
2022-10-25T15:13:45.007Z,98581.16
2022-10-25T15:16:32.583Z,98579.84
2022-10-25T15:19:14.320Z,98582.75
2022-10-25T15:21:51.929Z,98583.34
2022-10-25T15:24:23.969Z,98578.78
2022-10-25T15:27:02.046Z,98580.94
2022-10-25T15:32:17.855Z,98574.91
2022-10-25T15:34:50.013Z,98585.22
2022-10-25T15:37:18.019Z,98584.13
2022-10-25T15:39:49.792Z,98584.28
2022-10-25T15:42:17.216Z,98583.09
2022-10-25T15:44:44.627Z,98588.06
2022-10-25T15:47:33.327Z,98585.50
2022-10-25T15:50:03.837Z,98581.69
2022-10-25T15:52:30.505Z,98580.59
2022-10-25T15:54:57.192Z,98585.31
2022-10-25T15:57:23.858Z,98593.13
2022-10-25T15:59:50.350Z,98586.97
2022-10-25T16:02:31.975Z,98593.50
2022-10-25T16:04:58.608Z,98595.22
2022-10-25T16:07:25.234Z,98594.25
2022-10-25T16:09:51.827Z,98597.19
2022-10-25T16:12:30.598Z,98591.66
2022-10-25T16:14:57.386Z,98590.63
2022-10-25T16:17:23.936Z,98587.31
2022-10-25T16:19:50.640Z,98585.88
2022-10-25T16:22:17.198Z,98590.28
2022-10-25T16:24:43.712Z,98600.06
2022-10-25T16:27:12.530Z,98591.31
2022-10-25T16:29:39.343Z,98597.69
2022-10-25T16:32:06.334Z,98594.69
2022-10-25T16:34:33.013Z,98593.72
2022-10-25T16:36:59.694Z,98594.06
2022-10-25T16:39:26.320Z,98590.72
2022-10-25T16:41:55.220Z,98595.88
2022-10-25T16:44:21.875Z,98593.81
2022-10-25T16:46:48.481Z,98594.69
2022-10-25T16:49:15.606Z,98590.13
2022-10-25T16:51:42.456Z,98584.13
2022-10-25T16:54:11.146Z,98591.16
2022-10-25T16:56:37.717Z,98584.25
2022-10-25T16:59:04.311Z,98586.44
2022-10-25T17:01:34.430Z,98593.97
2022-10-25T17:04:02.892Z,98591.19
2022-10-25T17:06:40.938Z,98581.09
2022-10-25T17:09:08.302Z,98584.03
2022-10-25T17:11:34.988Z,98577.25
2022-10-25T17:14:01.570Z,98581.09
2022-10-25T17:16:28.309Z,98576.88
2022-10-25T17:18:54.969Z,98585.91
2022-10-25T17:21:22.202Z,98593.22
2022-10-25T17:23:48.795Z,98589.03
2022-10-25T17:26:15.362Z,98590.13
2022-10-25T17:28:44.147Z,98583.19
2022-10-25T17:31:13.891Z,98605.50
2022-10-25T17:33:41.874Z,98609.09
2022-10-25T17:36:10.009Z,98607.50
2022-10-25T17:38:36.791Z,98610.22
2022-10-25T17:41:04.232Z,98605.03
2022-10-25T17:43:30.808Z,98607.13
2022-10-25T17:46:02.486Z,98607.22
2022-10-25T17:48:29.710Z,98609.00
2022-10-25T17:51:07.667Z,98609.16
2022-10-25T17:53:34.726Z,98619.97
2022-10-25T17:56:18.295Z,98617.41
2022-10-25T17:58:46.806Z,98617.56
2022-10-25T18:01:16.065Z,98613.25
2022-10-25T18:03:42.759Z,98621.97
2022-10-25T18:06:12.009Z,98618.50
2022-10-25T18:08:38.710Z,98626.56
2022-10-25T18:11:19.364Z,98634.47
2022-10-25T18:13:46.247Z,98625.69
2022-10-25T18:16:12.927Z,98622.91
2022-10-25T18:18:39.791Z,98634.41
2022-10-25T18:21:11.931Z,98632.88
2022-10-25T18:23:39.363Z,98630.31
2022-10-25T18:26:07.584Z,98636.59
2022-10-25T18:28:35.232Z,98629.66
2022-10-25T18:31:04.056Z,98636.75
2022-10-25T18:33:32.257Z,98633.31
2022-10-25T18:36:00.244Z,98631.41
2022-10-25T18:38:27.508Z,98625.59
2022-10-25T18:40:54.436Z,98632.66
2022-10-25T18:43:21.617Z,98623.22
2022-10-25T18:45:48.275Z,98622.41
2022-10-25T18:48:14.888Z,98626.69
2022-10-25T18:50:42.653Z,98617.06
2022-10-25T18:53:09.421Z,98611.72
2022-10-25T18:55:35.900Z,98617.94
2022-10-25T18:58:02.578Z,98607.59
2022-10-25T19:00:31.402Z,98608.66
2022-10-25T19:02:58.122Z,98599.09
2022-10-25T19:05:28.239Z,98607.91
2022-10-25T19:07:56.093Z,98606.09
2022-10-25T19:10:23.516Z,98614.84
2022-10-25T19:12:51.280Z,98620.19
2022-10-25T19:15:18.104Z,98612.03
2022-10-25T19:17:45.023Z,98614.59
2022-10-25T19:20:11.881Z,98612.47
2022-10-25T19:22:38.792Z,98599.28
2022-10-25T19:25:05.729Z,98590.41
2022-10-25T19:27:32.397Z,98602.00
2022-10-25T19:29:58.987Z,98590.91
2022-10-25T19:32:25.517Z,98599.94
2022-10-25T19:34:52.286Z,98604.34
2022-10-25T19:37:18.889Z,98606.25
2022-10-25T19:39:45.434Z,98601.84
2022-10-25T19:42:12.111Z,98593.09
2022-10-25T19:44:38.666Z,98588.00
2022-10-25T19:47:05.405Z,98602.72
2022-10-25T19:49:32.200Z,98595.78
2022-10-25T19:51:58.841Z,98595.06
2022-10-25T19:54:25.612Z,98602.19
2022-10-25T19:56:52.161Z,98602.09
2022-10-25T19:59:18.861Z,98600.19
2022-10-25T20:01:47.702Z,98597.47
2022-10-25T20:04:14.560Z,98601.72
2022-10-25T20:06:41.081Z,98598.19
2022-10-25T20:09:07.905Z,98600.19
2022-10-25T20:11:34.516Z,98601.72
2022-10-25T20:14:02.324Z,98592.81
2022-10-25T20:16:30.127Z,98602.16
2022-10-25T20:18:59.931Z,98601.16
2022-10-25T20:21:31.750Z,98594.41
2022-10-25T20:24:01.481Z,98597.50
2022-10-25T20:26:31.556Z,98598.66
2022-10-25T20:29:01.038Z,98604.34
2022-10-25T20:31:29.758Z,98606.31
2022-10-25T20:33:57.210Z,98603.19
2022-10-25T20:36:24.243Z,98604.16
2022-10-25T20:38:51.057Z,98615.47
2022-10-25T20:41:20.619Z,98612.13
2022-10-25T20:43:49.667Z,98606.84
2022-10-25T20:46:17.384Z,98608.81
2022-10-25T20:48:45.537Z,98615.22
2022-10-25T20:51:15.653Z,98615.53
2022-10-25T20:53:44.230Z,98613.03
2022-10-25T20:56:12.108Z,98605.19
2022-10-25T20:58:39.088Z,98608.84
2022-10-25T21:01:05.980Z,98615.94
2022-10-25T21:03:33.581Z,98613.44
2022-10-25T21:06:03.483Z,98606.38
2022-10-25T21:08:30.937Z,98608.19
2022-10-25T21:10:59.960Z,98608.09
2022-10-25T21:13:27.763Z,98607.28
2022-10-25T21:15:54.392Z,98612.66
2022-10-25T21:18:21.631Z,98611.81
2022-10-25T21:20:49.086Z,98614.53
2022-10-25T21:23:15.703Z,98605.91
2022-10-25T21:25:42.213Z,98606.09
2022-10-25T21:28:09.288Z,98604.47
2022-10-25T21:30:35.979Z,98605.47
2022-10-25T21:33:03.965Z,98598.63
2022-10-25T21:35:30.971Z,98602.13
2022-10-25T21:37:59.144Z,98597.94
2022-10-25T21:40:26.005Z,98605.91
2022-10-25T21:42:52.572Z,98602.38
2022-10-25T21:45:19.213Z,98603.38
2022-10-25T21:47:45.843Z,98603.59
2022-10-25T21:50:12.587Z,98604.50
2022-10-25T21:52:39.148Z,98606.09
2022-10-25T21:55:06.282Z,98601.47
2022-10-25T21:57:32.832Z,98592.53
2022-10-25T21:59:59.405Z,98593.38
2022-10-25T22:02:26.250Z,98594.97
2022-10-25T22:04:52.971Z,98592.97
2022-10-25T22:07:19.534Z,98594.66
2022-10-25T22:09:46.360Z,98597.19
2022-10-25T22:12:12.909Z,98589.44
2022-10-25T22:14:39.507Z,98593.91
2022-10-25T22:17:06.214Z,98593.91
2022-10-25T22:19:32.888Z,98597.47
2022-10-25T22:21:59.470Z,98598.44
2022-10-25T22:24:26.100Z,98604.59
2022-10-25T22:26:52.931Z,98598.38
2022-10-25T22:29:19.825Z,98603.53
2022-10-25T22:31:46.392Z,98593.34
2022-10-25T22:34:12.959Z,98597.38
2022-10-25T22:36:41.071Z,98593.63
2022-10-25T22:39:08.901Z,98600.34
2022-10-25T22:41:35.693Z,98596.91
2022-10-25T22:44:02.577Z,98595.91
2022-10-25T22:46:32.558Z,98587.09
2022-10-25T22:49:03.900Z,98594.19
2022-10-25T22:51:30.676Z,98592.28
2022-10-25T22:53:57.338Z,98582.69
2022-10-25T22:56:29.750Z,98582.72
2022-10-25T22:58:59.975Z,98589.75
2022-10-25T23:01:32.787Z,98592.50
2022-10-25T23:04:00.885Z,98597.94
2022-10-25T23:06:33.567Z,98596.91
2022-10-25T23:09:02.691Z,98599.03
2022-10-25T23:11:35.106Z,98602.75
2022-10-25T23:14:02.539Z,98594.19
2022-10-25T23:16:29.960Z,98593.44
2022-10-25T23:18:57.244Z,98594.47
2022-10-25T23:21:26.058Z,98596.47
2022-10-25T23:23:54.801Z,98603.63
2022-10-25T23:26:32.974Z,98598.53
2022-10-25T23:29:00.721Z,98601.28
2022-10-25T23:31:28.534Z,98604.88
2022-10-25T23:33:57.081Z,98597.13
2022-10-25T23:36:25.867Z,98597.19
2022-10-25T23:38:54.161Z,98586.81
2022-10-25T23:41:21.933Z,98601.72
2022-10-25T23:43:49.011Z,98595.69
2022-10-25T23:46:15.566Z,98599.22
2022-10-25T23:48:42.278Z,98598.22
2022-10-25T23:51:18.075Z,98597.41
2022-10-25T23:53:45.759Z,98587.75
2022-10-25T23:56:13.768Z,98595.59
2022-10-25T23:58:40.408Z,98600.00
